Meath Environmental Platform

Observations for Trim Market St

Time AQI Temp °C Hum % Pres Pa CO μg/m³ H₂S μg/m³ NO μg/m³ NO₂ μg/m³ O₃ μg/m³ SO₂ μg/m³ PM1 μg/m³ PM2.5 μg/m³ PM10 μg/m³
Sunday 12 July 2026
01:23 1 19.3 75 33,970 0 0 0 7.51 14.95 0 7.13 9.51 15.28
01:21 1 19.3 75 34,339 0.01 0 0 9.52 22.9 0 7.13 8.56 13.5
01:20 1 19.3 75 34,611 0.01 0 1.2 3.12 12.37 0 7.13 9.04 12.9
01:14 1 19.4 75 36,006 0.11 0 0 3.21 15.29 0 7.84 9.53 13.51
01:08 1 19.4 75 36,902 0.01 0 0 3.14 8.49 0 7.13 8.11 11.72
01:07 1 19.4 75 36,953 0.01 0 0.15 4.54 7.69 0 6.41 8.11 11.72
01:06 1 19.5 75 37,084 0 0 0 5.21 6.79 0 6.41 7.63 12.32
01:05 1 19.5 75 37,310 0 0 1.38 3.91 1.78 0 4.99 7.15 11.12
01:04 1 19.5 75 37,427 0 0 0 9.52 18.2 0 5.7 8.11 12.33
01:03 1 19.5 75 37,656 0.01 0 0 5.22 13.98 0 6.41 8.59 12.33
01:02 1 19.5 75 37,798 0.1 0 0 5.42 8.89 0 7.84 9.07 13.53
01:01 1 19.5 75 38,052 0.09 0 0 5.42 9.86 0 6.41 7.63 11.13
01:00 1 19.5 74 38,281 0 0 0 5.43 12.76 0 5.7 7.16 11.13
00:59 1 19.6 74 38,607 0 0 0 6.41 8.56 0 7.13 10.52 14.73
00:58 1 19.6 74 38,980 0 0 0 2.01 7.58 0 5.7 7.16 10.53
00:57 1 19.6 74 39,378 0 0 0 4.62 5.41 0 6.41 7.64 11.74
00:56 1 19.6 74 39,850 0 0 0 8.92 19.27 0 7.13 8.12 12.34
00:55 1 19.6 74 40,228 0 0 0 3.23 11.36 0 6.41 7.65 11.14
00:53 1 19.6 74 40,412 0 0 0 2.64 6.92 0 5.7 7.18 11.14
00:52 1 19.6 74 40,507 0 0 0 5.85 8.03 0 5.7 7.66 12.95